Metar Cercanos

 

LEPA - Palma De Mallorc, Spain
Distance from station: ONO 38km
Actualización: Sun, 25-Sep-2022 1:30pm CEST
Few Clouds
Few Clouds
 Viento del ENE
Viento: ENE 19 km/h
Temperatura: 23°C
Rocío: 18°C
Humedad: 74%
Barómetro: 1011 hPa
Clouds: Few Clouds
Visibility: 10 km
Cloud details: Few Clouds 549 m
Few Clouds 610 m
2022/09/25 11:30 LEPA 251130Z 07010KT 9999 FEW018 FEW020TCU 23/18 Q1011 NOSIG
LEMH - Mahon/Menorca Is, Spain
Distance from station: ENE 105km
Actualización: Sun, 25-Sep-2022 1:30pm CEST
Muy nuboso
Muy nuboso
 Viento del NE
Viento: NE 28 km/h
Temperatura: 23°C
Rocío: 17°C
Humedad: 69%
Barómetro: 1012 hPa
Clouds: Muy nuboso
Visibility: 10 km
Cloud details: Parcialmente nuboso 701 m
Muy nuboso 1006 m
2022/09/25 11:30 LEMH 251130Z 04015KT 9999 SCT023 BKN033 23/17 Q1012
 
LEIB - Ibiza/Es Codola, Spain
Distance from station: OSO 165km
Actualización: Sun, 25-Sep-2022 1:30pm CEST
Muy nuboso
Muy nuboso
 Viento del NE
Viento: NE 15 km/h
Temperatura: 22°C
Rocío: 18°C
Humedad: 78%
Barómetro: 1011 hPa
Clouds: Muy nuboso
Visibility: 10 km
Cloud details: Few Clouds 610 m
Few Clouds 640 m
Parcialmente nuboso 1097 m
Muy nuboso 1372 m
2022/09/25 11:30 LEIB 251130Z 05008KT 020V080 9999 FEW020CB FEW021 SCT036 BKN045 22/18 Q1011 NOSIG
LEBL - Barcelona Airpor, Spain
Distance from station: NNO 225km
Actualización: Sun, 25-Sep-2022 1:30pm CEST
Few Clouds
Few Clouds
 Viento del S
Viento: S 9 km/h
Temperatura: 22°C
Rocío: 12°C
Humedad: 53%
Barómetro: 1013 hPa
Clouds: Few Clouds
Visibility: 10 km
Cloud details: Few Clouds 914 m
2022/09/25 11:30 LEBL 251130Z 18005KT 060V230 9999 FEW030 22/12 Q1013 NOSIG
 
LEVC - Valencia (civ/Mi, Spain
Distance from station: NO 188km
Actualización: Sun, 25-Sep-2022 1:30pm CEST
Few Clouds
Few Clouds
 Viento del E
Viento: E 19 km/h
Temperatura: 24°C
Rocío: 10°C
Humedad: 41%
Barómetro: 1012 hPa
Clouds: Few Clouds
Visibility: 10 km
Cloud details: Few Clouds 1372 m
2022/09/25 11:30 LEVC 251130Z 09010KT 060V120 9999 FEW045 24/10 Q1012 NOSIG
LEGE - Gerona/Costa Bra, Spain
Distance from station: N 276km
Actualización: Sun, 25-Sep-2022 1:30pm CEST
Muy nuboso
Muy nuboso
 Viento del E
Viento: E 7 km/h
Temperatura: 21°C
Rocío: 12°C
Humedad: 57%
Barómetro: 1013 hPa
Clouds: Muy nuboso
Visibility: 10 km
Cloud details: Parcialmente nuboso 1219 m
Muy nuboso 2134 m
2022/09/25 11:30 LEGE 251130Z 10004KT 040V160 9999 SCT040 BKN070 21/12 Q1013
 
LEAL - Alicante/El Alte, Spain
Distance from station: OSO 344km
Actualización: Sun, 25-Sep-2022 1:40pm CEST
Lluvia débil, Muy nuboso
Lluvia débil, Muy nuboso
 Viento del varies
Viento: varies 9 km/h
Temperatura: 22°C
Rocío: 19°C
Humedad: 83%
Barómetro: 1011 hPa
Resumen: Lluvia débil
Clouds: Muy nuboso
Visibility: 9 km
Cloud details: Few Clouds 762 m
Muy nuboso 1067 m
2022/09/25 11:40 LEAL 251140Z VRB05KT 9000 -RA FEW025CB BKN035 22/19 Q1011 RESHRA BECMG NSW
LEAM - Almeria Airport, Spain
Distance from station: SSO 56km
Actualización: Sun, 25-Sep-2022 1:30pm CEST
Few Clouds
Few Clouds
 Viento del SSO
Viento: SSO 19 km/h
Temperatura: 26°C
Rocío: 21°C
Humedad: 74%
Barómetro: 1010 hPa
Clouds: Few Clouds
Visibility: 10 km
Cloud details: Few Clouds 914 m
2022/09/25 11:30 LEAM 251130Z 20010KT 170V240 9999 FEW030 26/21 Q1010
 
LEZG - Zaragoza (mil/Ci, Spain
Distance from station: NO 431km
Actualización: Sun, 25-Sep-2022 1:30pm CEST
Despejado
Despejado
 Viento del ONO
Viento: ONO 24 km/h
Temperatura: 19°C
Rocío: 7°C
Humedad: 46%
Barómetro: 1015 hPa
Resumen: Despejado
Visibility: greater than 10 km
2022/09/25 11:30 LEZG 251130Z 29013KT 270V330 CAVOK 19/07 Q1015
LEMD - Madrid/Barajas, Spain
Distance from station: ONO 234km
Actualización: Sun, 25-Sep-2022 1:30pm CEST
Despejado
Despejado
 Viento del N
Viento: N 15 km/h
Temperatura: 18°C
Rocío: 4°C
Humedad: 40%
Barómetro: 1014 hPa
Resumen: Despejado
Visibility: greater than 10 km
2022/09/25 11:30 LEMD 251130Z 01008KT 340V070 CAVOK 18/04 Q1014 NOSIG
 
LEGR - Granada Airport, Spain
Distance from station: OSO 62km
Actualización: Sun, 25-Sep-2022 1:30pm CEST
Despejado
Despejado
 Viento del varies
Viento: varies 7 km/h
Temperatura: 24°C
Rocío: 7°C
Humedad: 34%
Barómetro: 1012 hPa
Resumen: Despejado
Visibility: greater than 10 km
2022/09/25 11:30 LEGR 251130Z VRB04KT CAVOK 24/07 Q1012
LEMG - Malaga (civ/Mil), Spain
Distance from station: OSO 227km
Actualización: Sun, 25-Sep-2022 1:30pm CEST
Despejado
Despejado
 Viento del S
Viento: S 19 km/h
Temperatura: 26°C
Rocío: 14°C
Humedad: 48%
Barómetro: 1010 hPa
Resumen: Despejado
Visibility: greater than 10 km
2022/09/25 11:30 LEMG 251130Z 18010KT 140V230 CAVOK 26/14 Q1010 NOSIG
 
LEZL - Sevilla (civ/Mil, Spain
Distance from station: S 318km
Actualización: Sun, 25-Sep-2022 1:30pm CEST
Few Clouds
Few Clouds
 Viento del OSO
Viento: OSO 13 km/h
Temperatura: 25°C
Rocío: 10°C
Humedad: 39%
Barómetro: 1010 hPa
Clouds: Few Clouds
Visibility: 10 km
Cloud details: Few Clouds 610 m
2022/09/25 11:30 LEZL 251130Z 24007KT 200V290 9999 FEW020 25/10 Q1010 NOSIG
LEVT - Vitoria, Spain
Distance from station: NO 226km
Actualización: Sun, 25-Sep-2022 1:30pm CEST
Muy nuboso
Muy nuboso
 Viento del NNO
Viento: NNO 9 km/h
Temperatura: 16°C
Rocío: 6°C
Humedad: 52%
Barómetro: 1017 hPa
Clouds: Muy nuboso
Visibility: 10 km
Cloud details: Muy nuboso 1067 m
2022/09/25 11:30 LEVT 251130Z 33005KT 240V050 9999 BKN035 16/06 Q1017
 
LEBB - Bilbao/Sondica, Spain
Distance from station: NNO 235km
Actualización: Sun, 25-Sep-2022 1:30pm CEST
Parcialmente nuboso
Parcialmente nuboso
 Viento del O
Viento: O 9 km/h
Temperatura: 19°C
Rocío: 11°C
Humedad: 60%
Barómetro: 1018 hPa
Clouds: Parcialmente nuboso
Visibility: 10 km
Cloud details: Parcialmente nuboso 853 m
2022/09/25 11:30 LEBB 251130Z 28005KT 210V340 9999 SCT028 19/11 Q1018 TEMPO RA
LESO - San Sebastian/Fu, Spain
Distance from station: N 231km
Actualización: Sun, 25-Sep-2022 1:30pm CEST
Few Clouds
Few Clouds
 Viento del O
Viento: O 7 km/h
Temperatura: 17°C
Rocío: 12°C
Humedad: 73%
Barómetro: 1017 hPa
Clouds: Few Clouds
Visibility: 10 km
Cloud details: Few Clouds 823 m
2022/09/25 11:30 LESO 251130Z 26004KT 210V300 9999 FEW027 17/12 Q1017
 
LEVD - Valladolid(Mil/C, Spain
Distance from station: ONO 239km
Actualización: Sun, 25-Sep-2022 1:30pm CEST
Parcialmente nuboso
Parcialmente nuboso
 Viento del ENE
Viento: ENE 28 km/h
Temperatura: 14°C
Rocío: 4°C
Humedad: 51%
Barómetro: 1016 hPa
Clouds: Parcialmente nuboso
Visibility: 10 km
Cloud details: Parcialmente nuboso 1189 m
2022/09/25 11:30 LEVD 251130Z 06015KT 9999 SCT039 14/04 Q1016
LESA - Salamanca (civ/M, Spain
Distance from station: ONO 349km
Actualización: Sun, 25-Sep-2022 1:30pm CEST
Few Clouds
Few Clouds
 Viento del E
Viento: E 19 km/h
Temperatura: 15°C
Rocío: 4°C
Humedad: 48%
Barómetro: 1016 hPa
Clouds: Few Clouds
Visibility: 10 km
Cloud details: Few Clouds 1219 m
2022/09/25 11:30 LESA 251130Z 08010KT 050V120 9999 FEW040 15/04 Q1016
 
LEXJ - Santander/Paraya, Spain
Distance from station: NNO 247km
Actualización: Sun, 25-Sep-2022 1:30pm CEST
Few Clouds
Few Clouds
 Viento del O
Viento: O 20 km/h
Temperatura: 18°C
Rocío: 12°C
Humedad: 68%
Barómetro: 1018 hPa
Clouds: Few Clouds
Visibility: 10 km
Cloud details: Few Clouds 914 m
2022/09/25 11:30 LEXJ 251130Z 27011KT 240V300 9999 FEW030TCU 18/12 Q1018
LEAS - Asturias/Aviles, Spain
Distance from station: NO 214km
Actualización: Sun, 25-Sep-2022 1:30pm CEST
Parcialmente nuboso
Parcialmente nuboso
 Viento del NO
Viento: NO 13 km/h
Temperatura: 16°C
Rocío: 14°C
Humedad: 88%
Barómetro: 1019 hPa
Clouds: Parcialmente nuboso
Visibility: 10 km
Cloud details: Few Clouds 914 m
Parcialmente nuboso 2438 m
2022/09/25 11:30 LEAS 251130Z 32007KT 280V350 9999 FEW030TCU SCT080 16/14 Q1019 TEMPO SHRA
 
LECO - La Coruna/Alvedr, Spain
Distance from station: ONO 222km
Actualización: Sun, 25-Sep-2022 1:30pm CEST
Parcialmente nuboso
Parcialmente nuboso
 Viento del N
Viento: N 7 km/h
Temperatura: 18°C
Rocío: 12°C
Humedad: 68%
Barómetro: 1020 hPa
Clouds: Parcialmente nuboso
Visibility: 10 km
Cloud details: Few Clouds 823 m
Parcialmente nuboso 1219 m
2022/09/25 11:30 LECO 251130Z 36004KT 290V060 9999 FEW027 SCT040 18/12 Q1020 NOSIG
LEVX - Vigo/Peinador, Spain
Distance from station: O 214km
Actualización: Sun, 25-Sep-2022 1:30pm CEST
Few Clouds
Few Clouds
 Viento del ENE
Viento: ENE 22 km/h
Temperatura: 20°C
Rocío: 8°C
Humedad: 46%
Barómetro: 1018 hPa
Clouds: Few Clouds
Visibility: 10 km
Cloud details: Few Clouds 1372 m
2022/09/25 11:30 LEVX 251130Z 07012KT 020V110 9999 FEW045 20/08 Q1018 NOSIG